Time;durP1;ratioP1;P1;durP2;ratioP2;P2;SDS_P1;SDS_P2;PMS_P1;PMS_P2;Temp;Humidity;BMP_temperature;BMP_pressure;BME280_temperature;BME280_humidity;BME280_pressure;Samples;Min_cycle;Max_cycle;Signal;HPM_P1;HPM_P2
2021/12/08 00:01:22;;;;;;;8.87;4.43;;;8.90;87.90;;;;;;5112107;27;20191;-79
2021/12/08 00:03:53;;;;;;;9.40;4.10;;;8.90;87.90;;;;;;5128583;27;20222;-79
2021/12/08 00:06:23;;;;;;;5.63;3.87;;;8.90;88.00;;;;;;5108217;27;20193;-80
2021/12/08 00:09:04;;;;;;;7.33;4.27;;;8.90;88.10;;;;;;5115066;27;20686;-80
2021/12/08 00:14:19;;;;;;;7.73;3.67;;;8.90;88.30;;;;;;5120477;27;20202;-79
2021/12/08 00:16:47;;;;;;;6.97;3.63;;;8.90;88.20;;;;;;5114443;27;20734;-79
2021/12/08 00:19:17;;;;;;;5.90;3.37;;;8.90;88.30;;;;;;5117251;27;20715;-78
2021/12/08 00:21:45;;;;;;;5.30;3.60;;;8.90;88.30;;;;;;5117741;27;20634;-79
2021/12/08 00:24:13;;;;;;;6.27;3.90;;;8.90;88.40;;;;;;5125458;27;20198;-79
2021/12/08 00:26:42;;;;;;;5.97;3.57;;;8.90;88.40;;;;;;5121296;27;20181;-79
2021/12/08 00:29:10;;;;;;;6.37;3.83;;;8.90;88.40;;;;;;5115697;27;20227;-79
2021/12/08 00:31:40;;;;;;;7.23;4.20;;;8.80;88.40;;;;;;5127091;27;20191;-80
2021/12/08 00:34:08;;;;;;;5.90;3.70;;;8.80;88.50;;;;;;5124078;27;20220;-80
2021/12/08 00:36:43;;;;;;;5.67;3.60;;;8.80;88.60;;;;;;5107347;27;20192;-79
2021/12/08 00:39:12;;;;;;;7.93;3.60;;;8.80;88.60;;;;;;5115744;27;20188;-79
2021/12/08 00:41:42;;;;;;;5.43;3.20;;;8.80;88.60;;;;;;5114575;27;20582;-79
2021/12/08 00:44:11;;;;;;;5.53;3.47;;;8.80;88.60;;;;;;5108900;27;20220;-79
2021/12/08 00:46:39;;;;;;;6.57;3.87;;;8.80;88.60;;;;;;5108213;27;20196;-80
2021/12/08 00:49:11;;;;;;;5.97;3.70;;;8.80;88.60;;;;;;5120499;27;20653;-80
2021/12/08 00:51:41;;;;;;;8.10;3.80;;;8.80;88.70;;;;;;5107601;27;20196;-79
2021/12/08 00:54:09;;;;;;;6.10;3.73;;;8.80;88.80;;;;;;5113885;27;20211;-80
2021/12/08 00:56:38;;;;;;;6.87;4.00;;;8.80;88.80;;;;;;5120516;27;20192;-77
2021/12/08 00:59:06;;;;;;;7.07;3.53;;;8.80;88.80;;;;;;5125359;27;20283;-78
2021/12/08 01:01:38;;;;;;;4.77;3.40;;;8.80;88.80;;;;;;5118846;27;20831;-79
2021/12/08 01:04:07;;;;;;;5.40;3.27;;;8.90;88.90;;;;;;5127315;27;20854;-78
2021/12/08 01:06:36;;;;;;;5.17;3.20;;;8.90;88.80;;;;;;5112069;27;20181;-79
2021/12/08 01:09:05;;;;;;;6.97;3.90;;;8.90;88.80;;;;;;5122014;27;20289;-79
2021/12/08 01:11:34;;;;;;;4.97;3.17;;;8.80;88.80;;;;;;5112739;27;20200;-78
2021/12/08 01:14:02;;;;;;;8.57;3.77;;;8.80;88.80;;;;;;5112200;27;20698;-78
2021/12/08 01:16:31;;;;;;;6.20;3.53;;;8.80;88.90;;;;;;5105858;27;20195;-78
2021/12/08 01:18:59;;;;;;;5.07;3.20;;;8.80;88.90;;;;;;5116095;27;20198;-79
2021/12/08 01:21:27;;;;;;;6.03;3.77;;;8.80;89.10;;;;;;5107999;28;20192;-78
2021/12/08 01:23:56;;;;;;;5.47;3.00;;;8.80;89.10;;;;;;5121099;27;20215;-78
2021/12/08 01:26:27;;;;;;;6.33;3.53;;;8.70;89.20;;;;;;5123523;27;21214;-78
2021/12/08 01:28:57;;;;;;;4.70;3.03;;;8.70;89.20;;;;;;5113822;27;20750;-80
2021/12/08 01:31:26;;;;;;;4.60;2.87;;;8.70;89.40;;;;;;5117359;27;20190;-78
2021/12/08 01:33:54;;;;;;;5.57;3.50;;;8.70;89.50;;;;;;5119734;27;20289;-77
2021/12/08 01:36:22;;;;;;;6.63;3.90;;;8.60;89.40;;;;;;5114950;27;20199;-79
2021/12/08 01:38:51;;;;;;;5.70;3.30;;;8.60;89.70;;;;;;5111011;28;20198;-78
2021/12/08 01:41:21;;;;;;;6.87;3.93;;;8.60;89.80;;;;;;5109807;28;20185;-79
2021/12/08 01:46:33;;;;;;;6.63;4.03;;;8.60;90.00;;;;;;5120005;27;20286;-78
2021/12/08 01:49:02;;;;;;;6.00;3.30;;;8.50;90.00;;;;;;5132437;27;20190;-78
2021/12/08 01:51:32;;;;;;;6.03;3.77;;;8.50;90.10;;;;;;5105649;28;20200;-78
2021/12/08 01:54:02;;;;;;;5.40;3.33;;;8.50;90.10;;;;;;5117412;27;20207;-80
2021/12/08 01:56:31;;;;;;;6.53;3.47;;;8.50;90.10;;;;;;5124544;27;20280;-78
2021/12/08 01:59:04;;;;;;;5.73;3.33;;;8.40;90.10;;;;;;5126718;27;20180;-78
2021/12/08 02:01:35;;;;;;;4.73;3.40;;;8.40;90.10;;;;;;5119402;27;20188;-79
2021/12/08 02:04:06;;;;;;;5.43;3.43;;;8.40;90.20;;;;;;5116522;28;20247;-79
2021/12/08 02:06:36;;;;;;;4.50;3.30;;;8.40;90.20;;;;;;5107874;27;20548;-77
2021/12/08 02:09:06;;;;;;;6.50;3.40;;;8.40;90.20;;;;;;5120386;27;20187;-78
2021/12/08 02:11:39;;;;;;;5.77;3.47;;;8.40;90.30;;;;;;5115032;27;20180;-79
2021/12/08 02:14:08;;;;;;;4.43;3.10;;;8.40;90.30;;;;;;5123927;27;20645;-78
2021/12/08 02:16:37;;;;;;;5.20;3.47;;;8.30;90.30;;;;;;5122115;27;20180;-79
2021/12/08 02:19:07;;;;;;;6.43;3.30;;;8.40;90.40;;;;;;5109222;27;20196;-80
2021/12/08 02:21:38;;;;;;;5.23;3.70;;;8.40;90.30;;;;;;5119118;27;20551;-78
2021/12/08 02:24:08;;;;;;;5.10;3.27;;;8.40;90.40;;;;;;5122467;27;20716;-78
2021/12/08 02:26:37;;;;;;;7.83;3.93;;;8.40;90.30;;;;;;5130473;27;20192;-78
2021/12/08 02:29:10;;;;;;;6.20;4.10;;;8.40;90.40;;;;;;5116873;27;20723;-79
2021/12/08 02:31:46;;;;;;;5.30;3.90;;;8.40;90.40;;;;;;5136919;27;20195;-78
2021/12/08 02:48:07;;;;;;;6.50;3.77;;;8.40;90.50;;;;;;5131008;27;20198;-78
2021/12/08 02:50:37;;;;;;;5.63;3.70;;;8.40;90.50;;;;;;5129352;27;20188;-78
2021/12/08 02:53:09;;;;;;;5.27;3.60;;;8.40;90.60;;;;;;5125667;27;20190;-78
2021/12/08 02:55:38;;;;;;;7.00;3.97;;;8.50;90.50;;;;;;5125300;27;20183;-78
2021/12/08 02:58:06;;;;;;;6.40;3.83;;;8.50;90.50;;;;;;5112068;27;20189;-78
2021/12/08 03:00:38;;;;;;;7.70;4.00;;;8.50;90.50;;;;;;5123690;27;20184;-79
2021/12/08 03:03:07;;;;;;;6.93;4.17;;;8.50;90.50;;;;;;5125761;27;20761;-78
2021/12/08 03:05:36;;;;;;;6.13;3.73;;;8.50;90.50;;;;;;5123762;27;20276;-79
2021/12/08 03:08:07;;;;;;;5.17;3.33;;;8.50;90.50;;;;;;5118329;27;20226;-79
2021/12/08 03:10:41;;;;;;;5.10;3.67;;;8.60;90.40;;;;;;5116020;27;20198;-79
2021/12/08 03:13:10;;;;;;;5.93;3.50;;;8.60;90.40;;;;;;5129157;27;20187;-78
2021/12/08 03:15:40;;;;;;;5.33;3.60;;;8.60;90.40;;;;;;5116260;27;20189;-80
2021/12/08 03:18:09;;;;;;;7.17;4.10;;;8.60;90.40;;;;;;5136245;27;20555;-79
2021/12/08 03:20:40;;;;;;;6.13;3.70;;;8.60;90.40;;;;;;5125240;27;20195;-79
2021/12/08 03:23:13;;;;;;;6.10;3.37;;;8.60;90.40;;;;;;5111486;27;20195;-80
2021/12/08 03:25:44;;;;;;;6.93;4.00;;;8.60;90.40;;;;;;5115829;27;20176;-79
2021/12/08 03:28:18;;;;;;;7.67;4.23;;;8.60;90.30;;;;;;5122157;27;20528;-79
2021/12/08 03:31:00;;;;;;;6.63;4.47;;;8.50;90.30;;;;;;5107136;27;20192;-79
2021/12/08 03:33:28;;;;;;;6.90;4.20;;;8.50;90.30;;;;;;5125567;27;20207;-79
2021/12/08 03:35:57;;;;;;;6.37;3.43;;;8.50;90.40;;;;;;5119344;27;20709;-79
2021/12/08 03:38:28;;;;;;;6.13;3.70;;;8.50;90.30;;;;;;5116229;27;20189;-79
2021/12/08 03:40:58;;;;;;;6.00;4.07;;;8.50;90.30;;;;;;5116772;27;20195;-80
2021/12/08 03:43:26;;;;;;;6.03;3.80;;;8.50;90.30;;;;;;5119046;27;20191;-80
2021/12/08 03:45:56;;;;;;;7.57;4.03;;;8.40;90.30;;;;;;5115146;27;20206;-79
2021/12/08 03:48:29;;;;;;;5.50;3.73;;;8.40;90.30;;;;;;5120891;27;20202;-80
2021/12/08 03:50:59;;;;;;;5.93;3.97;;;8.40;90.20;;;;;;5113651;27;20187;-79
2021/12/08 03:53:28;;;;;;;4.40;3.13;;;8.40;90.30;;;;;;5123077;27;20728;-79
2021/12/08 03:55:57;;;;;;;6.00;3.80;;;8.40;90.30;;;;;;5123093;27;20198;-80
2021/12/08 03:58:26;;;;;;;6.27;3.80;;;8.40;90.30;;;;;;5113499;27;20860;-78
2021/12/08 04:00:56;;;;;;;6.30;4.17;;;8.40;90.30;;;;;;5122260;27;20202;-80
2021/12/08 04:03:29;;;;;;;5.07;3.60;;;8.40;90.40;;;;;;5118073;27;20297;-79
2021/12/08 04:06:00;;;;;;;6.77;4.07;;;8.40;90.40;;;;;;5118558;27;20219;-79
2021/12/08 04:08:40;;;;;;;7.13;4.10;;;8.30;90.40;;;;;;5111756;27;20219;-79
2021/12/08 04:11:12;;;;;;;7.60;3.83;;;8.30;90.40;;;;;;5122182;27;20191;-78
2021/12/08 04:13:46;;;;;;;7.13;4.23;;;8.30;90.40;;;;;;5116747;27;20194;-79
2021/12/08 04:16:17;;;;;;;6.03;3.50;;;8.30;90.40;;;;;;5130909;27;20193;-79
2021/12/08 04:18:46;;;;;;;9.33;4.03;;;8.30;90.50;;;;;;5130107;27;20197;-80
2021/12/08 04:21:16;;;;;;;8.67;4.07;;;8.30;90.50;;;;;;5114915;27;20200;-80
2021/12/08 04:23:47;;;;;;;6.60;3.87;;;8.30;90.50;;;;;;5111982;27;20192;-80
2021/12/08 04:26:20;;;;;;;9.00;4.07;;;8.30;90.50;;;;;;5111042;27;20190;-79
2021/12/08 04:28:48;;;;;;;7.90;4.20;;;8.30;90.50;;;;;;5122753;27;20192;-79
2021/12/08 04:31:22;;;;;;;29.10;7.23;;;8.30;90.60;;;;;;5119980;27;20221;-80
2021/12/08 04:33:54;;;;;;;15.83;5.80;;;8.40;90.60;;;;;;5117996;27;20743;-78
2021/12/08 04:36:24;;;;;;;12.37;5.27;;;8.40;90.50;;;;;;5119250;27;20184;-79
2021/12/08 04:38:58;;;;;;;10.53;4.87;;;8.40;90.50;;;;;;5110889;27;20190;-78
2021/12/08 04:41:34;;;;;;;10.80;4.90;;;8.40;90.50;;;;;;5119921;27;20188;-79
2021/12/08 04:44:12;;;;;;;6.87;4.27;;;8.50;90.50;;;;;;5116044;27;20194;-78
2021/12/08 04:46:59;;;;;;;5.77;3.93;;;8.50;90.50;;;;;;5113920;27;20198;-79
2021/12/08 04:49:55;;;;;;;8.27;4.67;;;8.50;90.50;;;;;;5116718;27;20417;-78
2021/12/08 04:52:32;;;;;;;10.07;5.20;;;8.50;90.50;;;;;;5119695;27;20192;-78
2021/12/08 05:06:38;;;;;;;10.33;5.67;;;8.60;90.50;;;;;;5117268;27;20461;-79
2021/12/08 05:09:12;;;;;;;7.60;4.83;;;8.60;90.50;;;;;;5119875;27;20856;-78
2021/12/08 05:11:44;;;;;;;13.60;5.23;;;8.60;90.40;;;;;;5122152;27;20195;-79
2021/12/08 05:14:17;;;;;;;12.00;6.00;;;8.60;90.40;;;;;;5121593;27;20191;-78
2021/12/08 05:16:49;;;;;;;9.90;5.43;;;8.70;90.40;;;;;;5121467;27;20687;-78
2021/12/08 05:19:21;;;;;;;8.20;4.80;;;8.70;90.40;;;;;;5120608;27;20279;-79
2021/12/08 05:21:53;;;;;;;9.60;4.97;;;8.70;90.40;;;;;;5110513;27;20580;-79
2021/12/08 05:24:24;;;;;;;10.07;5.30;;;8.70;90.40;;;;;;5116835;27;20188;-78
2021/12/08 05:26:56;;;;;;;9.83;5.53;;;8.70;90.30;;;;;;5112232;28;20196;-80
2021/12/08 05:29:28;;;;;;;10.47;5.30;;;8.70;90.30;;;;;;5109774;28;20195;-79
2021/12/08 05:31:58;;;;;;;8.07;5.17;;;8.70;90.30;;;;;;5114192;28;20183;-79
2021/12/08 05:34:27;;;;;;;8.80;4.93;;;8.70;90.30;;;;;;5122111;28;20700;-80
2021/12/08 05:36:56;;;;;;;11.40;5.37;;;8.70;90.30;;;;;;5121121;28;20200;-79
2021/12/08 05:39:30;;;;;;;10.27;5.40;;;8.70;90.30;;;;;;5112569;28;20524;-79
2021/12/08 05:42:02;;;;;;;8.40;4.90;;;8.70;90.30;;;;;;5111962;27;20187;-79
2021/12/08 05:44:31;;;;;;;9.43;5.50;;;8.70;90.20;;;;;;5126408;27;20191;-79
2021/12/08 05:47:03;;;;;;;8.93;4.87;;;8.80;90.20;;;;;;5126659;27;20196;-80
2021/12/08 05:49:32;;;;;;;10.67;5.40;;;8.80;90.20;;;;;;5117634;27;20199;-80
2021/12/08 05:52:01;;;;;;;8.17;5.17;;;8.80;90.20;;;;;;5116048;27;20192;-80
2021/12/08 05:54:33;;;;;;;10.90;5.47;;;8.80;90.20;;;;;;5124508;27;20202;-79
2021/12/08 05:57:07;;;;;;;10.07;5.33;;;8.80;90.20;;;;;;5121963;27;20271;-79
2021/12/08 05:59:37;;;;;;;10.10;5.33;;;8.80;90.10;;;;;;5126044;27;20262;-80
2021/12/08 06:02:09;;;;;;;8.10;4.70;;;8.80;90.10;;;;;;5118199;27;20202;-80
2021/12/08 06:04:38;;;;;;;8.33;4.97;;;8.90;90.10;;;;;;5116340;27;20272;-79
2021/12/08 06:07:07;;;;;;;8.03;5.00;;;8.80;90.10;;;;;;5118870;27;20189;-80
2021/12/08 06:09:38;;;;;;;8.77;6.10;;;8.80;90.10;;;;;;5120903;27;20641;-80
2021/12/08 06:12:10;;;;;;;9.40;4.97;;;8.90;90.10;;;;;;5121369;27;20196;-80
2021/12/08 06:14:39;;;;;;;9.10;5.10;;;8.90;90.10;;;;;;5123259;27;20202;-79
2021/12/08 06:17:11;;;;;;;10.47;5.27;;;8.80;90.00;;;;;;5124463;27;20195;-79
2021/12/08 06:19:45;;;;;;;9.63;4.80;;;8.80;90.00;;;;;;5115549;27;20188;-80
2021/12/08 06:22:16;;;;;;;8.30;4.77;;;8.80;90.00;;;;;;5112067;27;20184;-79
2021/12/08 06:24:45;;;;;;;8.83;5.47;;;8.80;90.00;;;;;;5119716;27;20533;-79
2021/12/08 06:27:15;;;;;;;7.93;5.00;;;8.80;90.00;;;;;;5119582;27;20187;-79
2021/12/08 06:29:45;;;;;;;7.03;4.83;;;8.80;90.10;;;;;;5123144;27;20192;-79
2021/12/08 06:32:16;;;;;;;8.23;5.13;;;8.80;90.10;;;;;;5125723;27;20525;-79
2021/12/08 06:34:48;;;;;;;8.73;5.47;;;8.80;90.00;;;;;;5127057;27;20223;-79
2021/12/08 06:37:20;;;;;;;7.53;5.07;;;8.90;90.10;;;;;;5124253;27;20192;-80
2021/12/08 06:39:54;;;;;;;7.40;4.80;;;8.90;90.10;;;;;;5119986;27;20190;-79
2021/12/08 06:42:28;;;;;;;8.03;4.70;;;8.90;90.10;;;;;;5123174;27;20188;-79
2021/12/08 06:44:57;;;;;;;9.10;4.20;;;8.90;90.00;;;;;;5124506;27;20705;-78
2021/12/08 06:47:29;;;;;;;8.73;5.00;;;8.90;90.00;;;;;;5112491;27;20212;-78
2021/12/08 06:50:00;;;;;;;7.77;4.80;;;9.00;90.00;;;;;;5123682;27;20180;-78
2021/12/08 06:52:32;;;;;;;7.23;4.63;;;9.00;90.00;;;;;;5124702;27;20876;-77
2021/12/08 06:55:07;;;;;;;8.80;4.90;;;9.00;90.00;;;;;;5122381;27;20210;-80
2021/12/08 06:57:40;;;;;;;11.07;5.70;;;8.90;89.90;;;;;;5122275;27;20256;-77
2021/12/08 07:00:20;;;;;;;9.93;5.30;;;8.90;89.90;;;;;;5117897;27;20220;-78
2021/12/08 07:03:00;;;;;;;8.93;5.20;;;8.90;90.00;;;;;;5122913;27;20183;-79
2021/12/08 07:05:52;;;;;;;10.43;5.47;;;8.90;90.00;;;;;;5114219;27;20652;-78
2021/12/08 07:08:21;;;;;;;9.87;5.53;;;8.90;90.00;;;;;;5115510;27;20196;-80
2021/12/08 07:10:54;;;;;;;12.37;6.13;;;8.90;90.00;;;;;;5120302;27;20197;-78
2021/12/08 07:13:32;;;;;;;10.73;5.87;;;8.90;90.10;;;;;;5118495;27;20266;-78
2021/12/08 07:16:23;;;;;;;9.40;5.87;;;8.90;90.10;;;;;;5119271;27;20201;-78
2021/12/08 07:19:01;;;;;;;8.43;4.90;;;8.90;90.10;;;;;;5119631;27;20188;-79
2021/12/08 07:21:34;;;;;;;8.57;5.33;;;8.90;90.10;;;;;;5119203;27;20604;-79
2021/12/08 07:24:06;;;;;;;8.83;4.97;;;8.90;90.10;;;;;;5116641;27;20193;-77
2021/12/08 07:26:38;;;;;;;9.50;5.47;;;8.90;90.10;;;;;;5118913;27;20207;-78
2021/12/08 07:29:10;;;;;;;10.43;5.67;;;8.90;90.10;;;;;;5117122;27;20214;-79
2021/12/08 07:31:43;;;;;;;7.63;4.80;;;8.90;90.20;;;;;;5117770;27;20720;-79
2021/12/08 07:34:19;;;;;;;10.57;5.43;;;8.90;90.20;;;;;;5115270;27;20230;-81
2021/12/08 07:36:52;;;;;;;8.87;5.80;;;8.80;90.20;;;;;;5116936;27;20187;-79
2021/12/08 07:39:26;;;;;;;7.13;4.37;;;8.90;90.20;;;;;;5113856;27;20199;-78
2021/12/08 07:42:00;;;;;;;9.33;5.37;;;8.80;90.30;;;;;;5122389;27;20204;-79
2021/12/08 07:44:30;;;;;;;9.90;5.60;;;8.80;90.40;;;;;;5127116;27;20191;-79
2021/12/08 07:47:04;;;;;;;7.53;4.90;;;8.90;90.40;;;;;;5125512;27;20216;-79
2021/12/08 07:49:38;;;;;;;9.33;4.90;;;8.80;90.40;;;;;;5120509;27;20200;-80
2021/12/08 07:52:11;;;;;;;7.57;5.03;;;8.90;90.40;;;;;;5107747;27;20654;-79
2021/12/08 07:54:41;;;;;;;9.57;5.30;;;8.80;90.40;;;;;;5121771;27;20205;-79
2021/12/08 07:57:13;;;;;;;8.87;5.63;;;8.80;90.50;;;;;;5119637;27;20812;-80
2021/12/08 07:59:46;;;;;;;11.00;6.33;;;8.80;90.60;;;;;;5116121;27;20188;-79
2021/12/08 08:02:14;;;;;;;10.20;5.37;;;8.80;90.70;;;;;;5115158;27;20195;-79
2021/12/08 08:04:45;;;;;;;12.60;5.80;;;8.80;90.80;;;;;;5122055;27;20192;-79
2021/12/08 08:07:15;;;;;;;7.83;5.10;;;8.90;90.80;;;;;;5115358;27;20220;-79
2021/12/08 08:09:47;;;;;;;10.83;5.40;;;8.90;90.80;;;;;;5116082;27;20285;-79
2021/12/08 08:12:19;;;;;;;8.97;5.17;;;8.90;90.80;;;;;;5123710;27;20198;-80
2021/12/08 08:14:53;;;;;;;9.17;5.40;;;8.90;90.90;;;;;;5113850;27;20199;-77
2021/12/08 08:17:29;;;;;;;11.57;5.17;;;8.90;90.80;;;;;;5120215;27;20191;-80
2021/12/08 08:19:59;;;;;;;9.63;5.10;;;8.90;90.80;;;;;;5118797;27;20194;-77
2021/12/08 08:22:30;;;;;;;8.80;4.93;;;9.00;90.80;;;;;;5124813;27;20223;-78
2021/12/08 08:25:01;;;;;;;9.60;5.10;;;9.00;90.80;;;;;;5120189;27;20689;-78
2021/12/08 08:27:30;;;;;;;9.53;4.60;;;9.10;90.90;;;;;;5124679;27;20906;-80
2021/12/08 08:30:02;;;;;;;6.70;4.60;;;9.00;90.80;;;;;;5124232;27;20184;-79
2021/12/08 08:32:35;;;;;;;8.13;5.13;;;9.10;90.80;;;;;;5115805;27;20195;-78
2021/12/08 08:35:10;;;;;;;6.87;4.50;;;9.10;90.80;;;;;;5115336;27;20231;-78
2021/12/08 08:37:38;;;;;;;7.03;4.43;;;9.10;90.80;;;;;;5114389;27;20187;-79
2021/12/08 08:40:11;;;;;;;10.00;5.43;;;9.10;90.70;;;;;;5121452;27;20191;-78
2021/12/08 08:42:44;;;;;;;7.73;4.53;;;9.10;90.80;;;;;;5123674;27;20199;-78
2021/12/08 08:45:18;;;;;;;9.53;4.73;;;9.20;90.90;;;;;;5114704;27;20189;-77
2021/12/08 08:47:49;;;;;;;8.80;4.90;;;9.10;90.90;;;;;;5122977;27;20869;-78
2021/12/08 08:50:21;;;;;;;8.73;4.67;;;9.10;91.00;;;;;;5123212;27;20202;-78
2021/12/08 08:52:53;;;;;;;9.63;5.33;;;9.10;90.90;;;;;;5126200;27;20731;-78
2021/12/08 08:55:45;;;;;;;9.77;4.40;;;9.10;91.00;;;;;;5116708;27;20185;-79
2021/12/08 08:58:14;;;;;;;8.23;4.30;;;9.10;91.00;;;;;;5122934;27;20184;-78
2021/12/08 09:00:47;;;;;;;10.47;5.20;;;9.20;91.00;;;;;;5085237;27;20204;-78
2021/12/08 09:03:19;;;;;;;6.90;4.20;;;9.20;91.10;;;;;;5119235;27;20692;-79
2021/12/08 09:05:52;;;;;;;6.77;4.23;;;9.20;91.20;;;;;;5111755;27;20185;-77
2021/12/08 09:08:25;;;;;;;7.10;4.60;;;9.20;91.20;;;;;;5116650;27;20209;-78
2021/12/08 09:11:00;;;;;;;7.03;4.50;;;9.20;91.10;;;;;;5117002;27;20196;-79
2021/12/08 09:13:32;;;;;;;7.43;3.60;;;9.20;91.20;;;;;;5124298;27;20191;-76
2021/12/08 09:16:08;;;;;;;5.63;3.57;;;9.20;91.10;;;;;;5108839;27;20939;-78
2021/12/08 09:18:48;;;;;;;5.87;3.90;;;9.20;91.10;;;;;;5118683;27;20184;-77
2021/12/08 09:21:27;;;;;;;5.77;3.63;;;9.20;91.10;;;;;;5117473;27;20187;-80
2021/12/08 09:24:02;;;;;;;7.67;4.20;;;9.30;91.20;;;;;;5123055;27;20188;-78
2021/12/08 09:26:34;;;;;;;9.33;4.10;;;9.20;91.10;;;;;;5118143;27;20200;-80
2021/12/08 09:29:08;;;;;;;4.17;3.10;;;9.30;91.20;;;;;;5115376;27;20188;-81
2021/12/08 09:31:41;;;;;;;5.03;3.30;;;9.30;91.30;;;;;;5117514;27;20926;-79
2021/12/08 09:34:16;;;;;;;5.53;3.10;;;9.30;91.20;;;;;;5115822;27;20247;-79
2021/12/08 09:36:47;;;;;;;6.03;3.43;;;9.30;91.30;;;;;;5116312;28;20185;-80
2021/12/08 09:39:24;;;;;;;5.57;3.13;;;9.30;91.20;;;;;;5123207;27;20195;-81
2021/12/08 09:41:56;;;;;;;4.03;2.53;;;9.30;91.00;;;;;;5118672;28;20188;-81
2021/12/08 09:44:29;;;;;;;4.00;2.57;;;9.30;91.00;;;;;;5114203;27;20194;-80
2021/12/08 09:47:02;;;;;;;4.00;2.90;;;9.30;90.90;;;;;;5112686;27;20212;-80
2021/12/08 09:49:32;;;;;;;5.00;2.47;;;9.30;91.00;;;;;;5111793;27;20278;-79
2021/12/08 09:52:05;;;;;;;5.33;3.00;;;9.30;90.90;;;;;;5127136;27;20193;-80
2021/12/08 09:54:33;;;;;;;5.03;2.97;;;9.30;90.90;;;;;;5117837;27;20308;-80
2021/12/08 09:57:06;;;;;;;4.83;3.03;;;9.30;91.00;;;;;;5123292;27;20196;-80
2021/12/08 09:59:37;;;;;;;5.20;3.10;;;9.30;91.00;;;;;;5114829;27;20195;-80
2021/12/08 10:02:09;;;;;;;4.90;3.20;;;9.30;91.00;;;;;;5118737;27;20240;-80
2021/12/08 10:04:37;;;;;;;5.03;3.17;;;9.30;91.00;;;;;;5119210;27;20283;-79
2021/12/08 10:07:06;;;;;;;4.00;2.73;;;9.30;90.80;;;;;;5120735;27;20560;-80
2021/12/08 10:09:35;;;;;;;6.03;3.30;;;9.20;90.80;;;;;;5121552;28;20582;-79
2021/12/08 10:12:04;;;;;;;4.23;2.70;;;9.30;90.80;;;;;;5124577;28;20562;-79
2021/12/08 10:14:33;;;;;;;4.70;3.13;;;9.30;90.80;;;;;;5118891;27;20193;-80
2021/12/08 10:17:01;;;;;;;6.07;3.23;;;9.30;90.80;;;;;;5123975;27;20201;-80
2021/12/08 10:19:31;;;;;;;4.80;3.17;;;9.40;90.70;;;;;;5113176;28;20201;-79
2021/12/08 10:22:00;;;;;;;5.40;3.30;;;9.40;90.80;;;;;;5117429;27;20188;-79
2021/12/08 10:24:31;;;;;;;6.03;3.83;;;9.40;90.80;;;;;;5109803;28;20199;-78
2021/12/08 10:27:06;;;;;;;8.13;4.30;;;9.40;90.80;;;;;;5114057;27;20196;-77
2021/12/08 10:29:34;;;;;;;7.13;4.27;;;9.50;90.80;;;;;;5124875;27;20188;-78
2021/12/08 10:32:05;;;;;;;7.70;4.57;;;9.50;90.80;;;;;;5118623;27;20890;-77
2021/12/08 10:34:47;;;;;;;18.10;8.77;;;9.50;90.80;;;;;;5116744;27;20231;-77
2021/12/08 10:37:19;;;;;;;13.57;7.50;;;9.60;90.80;;;;;;5118735;27;20188;-77
2021/12/08 10:39:49;;;;;;;14.53;6.80;;;9.60;90.80;;;;;;5115909;27;20292;-77
2021/12/08 10:42:22;;;;;;;6.83;4.60;;;9.60;90.80;;;;;;5127990;27;20191;-77
2021/12/08 10:44:56;;;;;;;6.07;4.50;;;9.60;90.70;;;;;;5123995;27;20188;-77
2021/12/08 10:47:30;;;;;;;6.50;4.07;;;9.70;90.70;;;;;;5122499;27;20793;-76
2021/12/08 10:55:40;;;;;;;7.70;4.53;;;9.80;90.60;;;;;;5113152;27;20669;-76
2021/12/08 10:58:21;;;;;;;9.53;4.43;;;9.90;90.60;;;;;;5142350;27;20280;-77
2021/12/08 11:00:49;;;;;;;5.73;4.00;;;9.90;90.40;;;;;;5120469;27;20192;-76
2021/12/08 11:03:18;;;;;;;7.70;3.97;;;10.00;90.40;;;;;;5122068;27;20647;-74
2021/12/08 11:05:53;;;;;;;5.57;3.50;;;10.00;90.30;;;;;;5118407;27;20189;-76
2021/12/08 11:08:33;;;;;;;5.53;3.77;;;10.00;90.30;;;;;;5121873;27;20209;-78
2021/12/08 11:11:05;;;;;;;6.10;4.53;;;10.00;90.00;;;;;;5122635;27;20177;-78
2021/12/08 11:13:37;;;;;;;6.40;3.80;;;10.00;90.10;;;;;;5116267;27;20646;-77
2021/12/08 11:16:12;;;;;;;7.40;4.63;;;10.10;90.20;;;;;;5116118;27;20551;-78
2021/12/08 11:18:42;;;;;;;6.97;4.20;;;10.10;90.20;;;;;;5117074;27;20203;-78
2021/12/08 11:21:19;;;;;;;7.07;4.93;;;10.10;90.10;;;;;;5124991;27;20571;-77
2021/12/08 11:24:11;;;;;;;10.87;4.90;;;10.10;90.20;;;;;;5124492;27;20201;-77
2021/12/08 11:26:43;;;;;;;6.50;4.40;;;10.10;90.40;;;;;;5123902;27;20193;-78
2021/12/08 11:29:14;;;;;;;8.10;5.40;;;10.10;90.00;;;;;;5113370;27;20205;-78
2021/12/08 11:31:46;;;;;;;9.60;5.73;;;10.10;90.00;;;;;;5127895;27;20971;-79
2021/12/08 11:34:18;;;;;;;10.10;6.50;;;10.10;90.10;;;;;;5121346;27;20303;-77
2021/12/08 11:36:51;;;;;;;11.27;6.00;;;10.10;90.10;;;;;;5128004;27;20189;-78
2021/12/08 11:39:22;;;;;;;10.03;6.17;;;10.10;90.00;;;;;;5120584;27;20185;-77
2021/12/08 11:41:53;;;;;;;13.53;7.10;;;10.10;90.00;;;;;;5126669;27;20188;-79
2021/12/08 11:44:24;;;;;;;10.87;6.80;;;10.10;89.90;;;;;;5119499;27;20547;-78
2021/12/08 11:47:03;;;;;;;11.23;7.40;;;10.10;89.80;;;;;;5112848;27;20681;-79
2021/12/08 11:49:32;;;;;;;12.83;7.97;;;10.00;90.20;;;;;;5113951;27;20193;-79
2021/12/08 11:52:09;;;;;;;13.50;8.63;;;10.00;89.80;;;;;;5116469;27;20208;-78
2021/12/08 11:54:41;;;;;;;13.37;8.13;;;10.00;90.00;;;;;;5124939;27;20794;-77
2021/12/08 11:57:17;;;;;;;13.80;8.03;;;9.90;90.00;;;;;;5122740;27;20699;-79
2021/12/08 11:59:58;;;;;;;13.33;7.63;;;9.90;90.00;;;;;;5115080;27;20283;-79
2021/12/08 12:02:29;;;;;;;15.37;8.30;;;9.90;90.00;;;;;;5126133;27;20267;-78
2021/12/08 12:04:59;;;;;;;16.23;9.30;;;9.90;90.20;;;;;;5115288;27;20185;-77
2021/12/08 12:07:29;;;;;;;16.50;8.43;;;9.90;90.30;;;;;;5108702;27;20188;-77
2021/12/08 12:09:57;;;;;;;14.67;8.57;;;9.90;90.30;;;;;;5109973;27;20213;-79
2021/12/08 12:12:26;;;;;;;16.13;9.13;;;9.90;90.30;;;;;;5121961;27;20188;-79
2021/12/08 12:14:54;;;;;;;17.60;9.63;;;9.90;90.30;;;;;;5118399;27;20575;-80
2021/12/08 12:17:22;;;;;;;17.03;8.73;;;9.80;90.20;;;;;;5115493;27;20194;-77
2021/12/08 12:19:58;;;;;;;16.87;9.40;;;9.80;90.20;;;;;;5115831;27;20214;-78
2021/12/08 12:22:41;;;;;;;16.50;9.40;;;9.80;90.30;;;;;;5116150;27;20189;-77
2021/12/08 12:25:35;;;;;;;16.83;9.57;;;9.80;90.30;;;;;;5113871;27;20188;-78
2021/12/08 12:28:25;;;;;;;17.97;10.07;;;9.80;90.30;;;;;;5117922;27;20184;-78
2021/12/08 12:31:09;;;;;;;17.27;9.03;;;9.80;90.40;;;;;;5106159;27;20696;-77
2021/12/08 12:33:42;;;;;;;17.67;9.73;;;9.80;90.40;;;;;;5118651;27;20183;-78
2021/12/08 12:36:20;;;;;;;19.00;9.30;;;9.70;90.30;;;;;;5113932;27;20217;-78
2021/12/08 12:38:50;;;;;;;17.90;8.57;;;9.70;90.40;;;;;;5108020;27;20670;-79
2021/12/08 12:41:28;;;;;;;15.87;9.53;;;9.70;90.40;;;;;;5116775;27;20200;-78
2021/12/08 12:44:19;;;;;;;16.57;9.27;;;9.70;90.50;;;;;;5112026;27;20220;-77
2021/12/08 12:47:22;;;;;;;17.80;9.63;;;9.70;90.50;;;;;;5112259;27;20200;-78
2021/12/08 12:50:10;;;;;;;18.70;9.87;;;9.70;90.60;;;;;;5113452;27;20201;-78
2021/12/08 12:52:40;;;;;;;17.57;9.53;;;9.80;90.60;;;;;;5115741;27;20191;-77
2021/12/08 12:55:13;;;;;;;16.83;9.80;;;9.80;90.60;;;;;;5116204;27;20200;-77
2021/12/08 12:58:12;;;;;;;17.03;9.10;;;9.80;90.60;;;;;;5113424;27;20199;-77
2021/12/08 13:00:43;;;;;;;18.93;10.87;;;9.80;90.50;;;;;;5109463;27;20200;-79
2021/12/08 13:03:35;;;;;;;16.30;9.37;;;9.80;90.50;;;;;;5105498;27;20639;-79
2021/12/08 13:06:05;;;;;;;19.03;10.63;;;9.80;90.60;;;;;;5109560;27;20237;-77
2021/12/08 13:08:35;;;;;;;23.57;12.20;;;9.80;90.60;;;;;;5116196;27;20214;-82
2021/12/08 13:11:30;;;;;;;25.67;13.60;;;9.80;90.60;;;;;;5112699;27;20707;-80
2021/12/08 13:13:58;;;;;;;29.57;14.27;;;9.80;90.60;;;;;;5111858;27;20287;-79
2021/12/08 13:16:28;;;;;;;20.20;12.10;;;9.80;90.60;;;;;;5109909;27;20196;-77
2021/12/08 13:19:00;;;;;;;20.17;12.20;;;9.90;90.60;;;;;;5108877;27;20199;-77
2021/12/08 13:21:42;;;;;;;23.87;11.13;;;9.90;90.70;;;;;;5108722;27;20184;-78
2021/12/08 13:24:38;;;;;;;19.67;11.70;;;9.90;90.60;;;;;;5121229;27;20222;-77
2021/12/08 13:27:09;;;;;;;23.33;12.93;;;9.90;90.50;;;;;;5108303;27;20631;-78
2021/12/08 13:29:41;;;;;;;24.40;13.23;;;9.90;90.50;;;;;;5116704;27;20194;-79
2021/12/08 13:32:12;;;;;;;21.17;13.00;;;10.00;90.50;;;;;;5117249;28;20188;-77
2021/12/08 13:34:43;;;;;;;40.97;22.43;;;10.00;90.40;;;;;;5109088;28;20213;-77
2021/12/08 13:37:18;;;;;;;45.30;25.27;;;10.00;90.40;;;;;;5106715;27;20188;-77
2021/12/08 13:39:48;;;;;;;22.40;13.47;;;10.00;90.40;;;;;;5108596;28;20173;-79
2021/12/08 13:42:49;;;;;;;97.70;52.27;;;10.00;90.30;;;;;;5104704;28;20186;-79
2021/12/08 13:45:18;;;;;;;70.40;35.83;;;10.00;90.30;;;;;;5109773;27;20189;-78
2021/12/08 13:47:48;;;;;;;55.90;31.93;;;10.00;90.30;;;;;;5114744;28;20184;-78
2021/12/08 13:50:19;;;;;;;24.13;15.97;;;10.00;90.30;;;;;;5106772;27;20911;-83
2021/12/08 13:53:08;;;;;;;27.97;17.50;;;10.00;90.30;;;;;;5110219;28;20192;-80
2021/12/08 13:55:40;;;;;;;34.20;16.63;;;9.90;90.20;;;;;;5119134;27;20567;-81
2021/12/08 13:58:15;;;;;;;19.17;11.07;;;10.00;90.30;;;;;;5103681;28;20213;-81